createdAt,value
2018-08-07T00:04:12.676Z,3.23
2018-08-07T00:09:16.815Z,3.10
2018-08-07T00:14:21.010Z,3.10
2018-08-07T00:19:25.346Z,3.13
2018-08-07T00:24:29.646Z,3.00
2018-08-07T00:29:33.817Z,3.10
2018-08-07T00:34:37.956Z,3.20
2018-08-07T00:39:42.074Z,2.90
2018-08-07T00:44:46.229Z,2.83
2018-08-07T00:49:50.485Z,3.37
2018-08-07T00:54:54.697Z,3.50
2018-08-07T00:59:58.826Z,3.20
2018-08-07T01:05:02.966Z,3.70
2018-08-07T01:10:09.174Z,4.13
2018-08-07T01:15:15.015Z,3.80
2018-08-07T01:20:22.618Z,3.80
2018-08-07T01:25:41.935Z,3.70
2018-08-07T01:30:46.132Z,3.63
2018-08-07T01:35:50.181Z,4.03
2018-08-07T01:40:54.606Z,3.83
2018-08-07T01:45:58.697Z,3.80
2018-08-07T01:51:02.872Z,3.33
2018-08-07T01:56:06.989Z,4.00
2018-08-07T02:01:11.112Z,4.10
2018-08-07T02:06:15.392Z,3.90
2018-08-07T02:11:19.474Z,4.60
2018-08-07T02:16:23.568Z,4.40
2018-08-07T02:21:27.840Z,4.33
2018-08-07T02:26:31.974Z,4.50
2018-08-07T02:31:36.066Z,3.93
2018-08-07T02:36:40.133Z,3.57
2018-08-07T02:41:44.271Z,3.50
2018-08-07T02:46:48.510Z,4.03
2018-08-07T02:51:52.586Z,3.53
2018-08-07T02:56:56.480Z,3.77
2018-08-07T03:02:00.501Z,3.43
2018-08-07T03:07:04.881Z,3.40
2018-08-07T03:12:09.116Z,3.60
2018-08-07T03:17:13.240Z,3.37
2018-08-07T03:22:17.472Z,3.80
2018-08-07T03:27:21.641Z,3.60
2018-08-07T03:32:25.809Z,3.40
2018-08-07T03:37:41.787Z,3.13
2018-08-07T03:42:46.109Z,3.30
2018-08-07T03:47:50.186Z,3.23
2018-08-07T03:52:54.282Z,3.60
2018-08-07T03:57:59.199Z,4.20
2018-08-07T04:03:03.302Z,3.50
2018-08-07T04:08:07.485Z,3.40
2018-08-07T04:13:11.639Z,3.40
2018-08-07T04:18:15.779Z,3.30
2018-08-07T04:23:20.621Z,3.90
2018-08-07T04:28:24.720Z,3.67
2018-08-07T04:33:28.873Z,3.10
2018-08-07T04:38:33.287Z,3.47
2018-08-07T04:43:37.417Z,3.50
2018-08-07T04:48:41.546Z,3.43
2018-08-07T04:53:45.728Z,3.30
2018-08-07T04:58:49.897Z,3.30
2018-08-07T05:03:54.593Z,2.73
2018-08-07T05:09:01.242Z,3.20
2018-08-07T05:14:06.075Z,3.43
2018-08-07T05:19:10.236Z,3.40
2018-08-07T05:24:14.504Z,3.40
2018-08-07T05:29:18.765Z,3.57
2018-08-07T05:34:22.910Z,3.50
2018-08-07T05:39:27.872Z,3.60
2018-08-07T05:44:32.868Z,3.40
2018-08-07T05:49:40.328Z,3.23
2018-08-07T05:54:44.509Z,4.07
2018-08-07T05:59:48.618Z,3.10
2018-08-07T06:04:53.625Z,4.10
2018-08-07T06:09:58.070Z,4.00
2018-08-07T06:15:02.199Z,3.30
2018-08-07T06:20:06.500Z,3.53
2018-08-07T06:25:12.941Z,3.33
2018-08-07T06:30:18.775Z,3.33
2018-08-07T06:35:22.988Z,4.07
2018-08-07T06:40:27.086Z,4.07
2018-08-07T06:45:31.536Z,3.80
2018-08-07T06:50:35.589Z,3.60
2018-08-07T06:55:39.714Z,3.93
2018-08-07T07:00:43.927Z,3.63
2018-08-07T07:05:48.269Z,2.90
2018-08-07T07:10:52.351Z,3.23
2018-08-07T07:15:56.485Z,2.90
2018-08-07T07:21:01.417Z,3.20
2018-08-07T07:26:05.671Z,3.27
2018-08-07T07:31:09.845Z,3.63
2018-08-07T07:36:23.436Z,3.00
2018-08-07T07:41:27.798Z,3.17
2018-08-07T07:46:32.029Z,3.20
2018-08-07T07:51:36.128Z,3.50
2018-08-07T07:56:39.940Z,3.40
2018-08-07T08:01:43.931Z,3.23
2018-08-07T08:06:48.028Z,3.70
2018-08-07T08:11:52.371Z,3.40
2018-08-07T08:16:56.490Z,3.53
2018-08-07T08:22:00.617Z,3.10
2018-08-07T08:27:04.529Z,3.17
2018-08-07T08:32:08.208Z,2.87
2018-08-07T08:37:12.188Z,3.87
2018-08-07T08:42:16.404Z,3.23
2018-08-07T08:47:20.528Z,3.67
2018-08-07T08:52:24.697Z,3.63
2018-08-07T08:57:29.001Z,3.30
2018-08-07T09:02:33.095Z,3.80
2018-08-07T09:07:37.747Z,3.63
2018-08-07T09:12:42.110Z,3.90
2018-08-07T09:17:46.294Z,3.67
2018-08-07T09:22:50.587Z,3.60
2018-08-07T09:27:55.190Z,3.80
2018-08-07T09:32:59.924Z,3.73
2018-08-07T09:38:04.131Z,3.80
2018-08-07T09:43:08.316Z,3.50
2018-08-07T09:48:13.057Z,4.70
2018-08-07T09:53:17.308Z,5.53
2018-08-07T09:58:21.475Z,4.80
2018-08-07T10:03:25.609Z,5.47
2018-08-07T10:08:29.760Z,4.83
2018-08-07T10:13:34.878Z,4.97
2018-08-07T10:18:43.812Z,4.17
2018-08-07T10:23:48.279Z,4.17
2018-08-07T10:28:52.641Z,4.15
2018-08-07T10:33:56.922Z,4.37
2018-08-07T10:39:01.060Z,4.00
2018-08-07T10:44:05.297Z,3.08
2018-08-07T10:49:09.418Z,3.03
2018-08-07T10:54:13.577Z,3.55
2018-08-07T10:59:18.736Z,3.10
2018-08-07T11:04:22.902Z,2.98
2018-08-07T11:09:28.161Z,2.83
2018-08-07T11:14:33.194Z,3.03
2018-08-07T11:19:38.148Z,2.70
2018-08-07T11:24:43.280Z,2.87
2018-08-07T11:29:47.458Z,3.55
2018-08-07T11:34:51.652Z,2.35
2018-08-07T11:39:55.942Z,2.80
2018-08-07T11:45:00.126Z,3.00
2018-08-07T11:50:07.500Z,2.85
2018-08-07T11:55:13.716Z,3.22
2018-08-07T12:00:22.305Z,3.20
2018-08-07T12:05:26.689Z,2.67
2018-08-07T12:10:30.889Z,3.30
2018-08-07T12:15:35.302Z,2.98
2018-08-07T12:20:39.553Z,2.98
2018-08-07T12:25:43.678Z,3.30
2018-08-07T12:30:47.901Z,2.93
2018-08-07T12:35:52.054Z,2.53
2018-08-07T12:40:56.675Z,3.10
2018-08-07T12:46:01.222Z,2.97
2018-08-07T12:51:06.234Z,3.10
2018-08-07T12:56:10.308Z,3.00
2018-08-07T13:01:14.421Z,2.87
2018-08-07T13:06:19.287Z,3.27
2018-08-07T13:11:23.590Z,2.67
2018-08-07T13:16:28.839Z,3.25
2018-08-07T13:21:33.637Z,3.10
2018-08-07T13:26:37.848Z,3.12
2018-08-07T13:31:42.158Z,2.97
2018-08-07T13:36:47.131Z,3.12
2018-08-07T13:41:51.514Z,2.70
2018-08-07T13:46:56.758Z,3.13
2018-08-07T13:52:00.973Z,3.10
2018-08-07T13:57:05.193Z,2.97
2018-08-07T14:02:09.543Z,3.00
2018-08-07T14:07:19.734Z,2.90
2018-08-07T14:12:24.753Z,3.07
2018-08-07T14:17:28.947Z,2.80
2018-08-07T14:22:33.298Z,2.97
2018-08-07T14:27:37.469Z,2.70
2018-08-07T14:32:41.695Z,3.13
2018-08-07T14:37:47.240Z,3.00
2018-08-07T14:42:52.072Z,2.60
2018-08-07T14:47:58.225Z,2.80
2018-08-07T14:53:06.704Z,2.93
2018-08-07T14:58:10.989Z,3.30
2018-08-07T15:03:15.155Z,2.87
2018-08-07T15:08:19.304Z,2.90
2018-08-07T15:13:24.975Z,3.10
2018-08-07T15:18:29.069Z,3.00
2018-08-07T15:23:33.312Z,3.40
2018-08-07T15:28:37.463Z,2.73
2018-08-07T15:33:41.758Z,3.43
2018-08-07T15:38:45.965Z,2.83
2018-08-07T15:43:49.934Z,3.70
2018-08-07T15:48:54.113Z,3.30
2018-08-07T15:53:58.324Z,3.30
2018-08-07T15:59:15.849Z,3.20
2018-08-07T16:04:21.867Z,3.20
2018-08-07T16:09:26.149Z,3.27
2018-08-07T16:14:56.583Z,3.10
2018-08-07T16:20:00.885Z,3.70
2018-08-07T16:25:05.633Z,3.40
2018-08-07T16:30:14.845Z,3.23
2018-08-07T16:35:19.193Z,3.30
2018-08-07T16:40:24.664Z,3.40
2018-08-07T16:45:29.433Z,3.60
2018-08-07T16:50:33.644Z,3.63
2018-08-07T16:55:37.759Z,3.07
2018-08-07T17:00:41.909Z,3.20
2018-08-07T17:05:46.025Z,2.77
2018-08-07T17:10:50.313Z,3.40
2018-08-07T17:15:54.341Z,2.90
2018-08-07T17:20:58.729Z,3.27
2018-08-07T17:26:02.882Z,3.20
2018-08-07T17:31:08.905Z,3.17
2018-08-07T17:36:14.604Z,3.63
2018-08-07T17:41:18.745Z,3.10
2018-08-07T17:46:22.912Z,3.13
2018-08-07T17:51:27.329Z,3.20
2018-08-07T17:56:31.489Z,3.23
2018-08-07T18:01:35.680Z,3.20
2018-08-07T18:06:39.840Z,2.87
2018-08-07T18:11:44.020Z,3.43
2018-08-07T18:16:48.312Z,3.23
2018-08-07T18:21:53.916Z,2.93
2018-08-07T18:26:58.329Z,3.13
2018-08-07T18:32:02.775Z,3.17
2018-08-07T18:37:07.083Z,3.27
2018-08-07T18:42:11.553Z,3.50
2018-08-07T18:47:16.533Z,3.27
2018-08-07T18:52:21.165Z,3.07
2018-08-07T18:57:26.427Z,3.17
2018-08-07T19:02:30.654Z,3.37
2018-08-07T19:07:34.793Z,3.70
2018-08-07T19:12:38.636Z,2.87
2018-08-07T19:17:43.483Z,3.30
2018-08-07T19:22:48.081Z,3.50
2018-08-07T19:27:52.336Z,4.23
2018-08-07T19:32:56.560Z,4.90
2018-08-07T19:38:00.840Z,4.03
2018-08-07T19:43:06.089Z,3.90
2018-08-07T19:48:10.413Z,4.47
2018-08-07T19:53:36.349Z,4.10
2018-08-07T19:58:40.499Z,7.30
2018-08-07T20:03:44.667Z,6.23
2018-08-07T20:08:48.969Z,6.33
2018-08-07T20:13:52.838Z,5.17
2018-08-07T20:18:57.112Z,5.37
2018-08-07T20:24:01.310Z,5.40
2018-08-07T20:29:05.465Z,5.90
2018-08-07T20:34:10.278Z,11.03
2018-08-07T20:39:14.819Z,5.57
2018-08-07T20:44:18.949Z,4.97
2018-08-07T20:49:23.613Z,5.20
2018-08-07T20:54:27.846Z,5.27
2018-08-07T20:59:31.965Z,4.93
2018-08-07T21:04:36.096Z,4.50
2018-08-07T21:09:40.224Z,4.93
2018-08-07T21:14:44.471Z,5.00
2018-08-07T21:19:48.564Z,4.33
2018-08-07T21:24:52.806Z,4.90
2018-08-07T21:29:56.911Z,4.87
2018-08-07T21:35:01.034Z,3.63
2018-08-07T21:40:05.240Z,3.77
2018-08-07T21:45:09.296Z,3.80
2018-08-07T21:50:15.062Z,3.27
2018-08-07T21:55:19.805Z,3.50
2018-08-07T22:00:43.436Z,3.67
2018-08-07T22:05:48.423Z,3.17
2018-08-07T22:10:52.311Z,3.30
2018-08-07T22:15:56.321Z,3.10
2018-08-07T22:21:00.567Z,3.37
2018-08-07T22:26:04.761Z,3.43
2018-08-07T22:31:08.964Z,3.47
2018-08-07T22:36:13.074Z,3.57
2018-08-07T22:41:17.540Z,4.00
2018-08-07T22:46:21.830Z,3.70
2018-08-07T22:51:27.114Z,4.13
2018-08-07T22:56:30.979Z,4.27
2018-08-07T23:01:35.459Z,4.83
2018-08-07T23:06:39.620Z,4.90
2018-08-07T23:11:43.756Z,5.70
2018-08-07T23:16:48.030Z,5.57
2018-08-07T23:21:51.877Z,6.87
2018-08-07T23:26:55.889Z,6.30
2018-08-07T23:31:59.984Z,6.07
2018-08-07T23:37:03.860Z,5.93
2018-08-07T23:42:07.980Z,6.53
2018-08-07T23:47:12.065Z,6.67
2018-08-07T23:52:16.167Z,6.33
2018-08-07T23:57:20.349Z,7.03
